Armington, Montana
Current Conditions -  °F | °C
As of 9:56 PM on Wednesday 26 Nov 2014 (Local Time) from KGFA Reporting Station
Moderate Fog Moderate Fog  
Wind Chill: 26°   Ceiling: 200
Heat Index: NA   Visibility: 0.37mi
Dew Point: 26°   Wind: 1mph
Humidity: NA   Direction: NA
Pressure: 30.01"   Gusts: NA
Location:  47.3298°N, 110.893°W
Report Text: KGFA 270456Z AUTO VRB01KT 3/8SM FZFG VV002 M04/M03 A3001 RMK AO2 SLP209 T10361032
Loading
Personal Weather Stations






























Interactive Weather Map New forecast layout! Learn more

10-Day Weather Forecast

Advertisements
Track Severe Weather on mobile